createdAt,value
2023-06-30T00:01:49.953Z,16.33
2023-06-30T00:04:19.796Z,16.32
2023-06-30T00:06:51.029Z,16.31
2023-06-30T00:09:20.589Z,16.26
2023-06-30T00:11:52.034Z,16.22
2023-06-30T00:14:21.113Z,16.16
2023-06-30T00:16:51.052Z,16.11
2023-06-30T00:19:20.231Z,16.04
2023-06-30T00:21:49.447Z,16.00
2023-06-30T00:24:17.535Z,15.92
2023-06-30T00:26:45.622Z,15.88
2023-06-30T00:29:13.809Z,15.88
2023-06-30T00:31:41.839Z,15.88
2023-06-30T00:34:10.112Z,15.86
2023-06-30T00:36:39.654Z,15.84
2023-06-30T00:39:07.769Z,15.81
2023-06-30T00:41:35.940Z,15.79
2023-06-30T00:44:04.069Z,15.75
2023-06-30T00:46:32.110Z,15.71
2023-06-30T00:49:00.078Z,15.69
2023-06-30T00:51:27.938Z,15.68
2023-06-30T00:53:57.183Z,15.66
2023-06-30T00:56:27.470Z,15.59
2023-06-30T00:58:55.883Z,15.56
2023-06-30T01:01:37.649Z,15.51
2023-06-30T01:04:18.320Z,15.49
2023-06-30T01:06:55.463Z,15.49
2023-06-30T01:09:27.456Z,15.46
2023-06-30T01:11:56.436Z,15.44
2023-06-30T01:14:25.631Z,15.35
2023-06-30T01:16:53.582Z,15.30
2023-06-30T01:19:31.924Z,15.30
2023-06-30T01:22:35.072Z,15.29
2023-06-30T01:25:07.916Z,15.25
2023-06-30T01:27:37.493Z,15.24
2023-06-30T01:30:10.303Z,15.24
2023-06-30T01:32:39.322Z,15.24
2023-06-30T01:35:07.552Z,15.24
2023-06-30T01:37:35.469Z,15.23
2023-06-30T01:40:05.412Z,15.23
2023-06-30T01:42:35.812Z,15.23
2023-06-30T01:45:04.924Z,15.25
2023-06-30T01:47:33.746Z,15.30
2023-06-30T01:50:01.889Z,15.33
2023-06-30T01:52:29.763Z,15.31
2023-06-30T01:54:59.697Z,15.31
2023-06-30T01:57:27.601Z,15.28
2023-06-30T01:59:55.612Z,15.26
2023-06-30T02:02:23.560Z,15.23
2023-06-30T02:04:51.619Z,15.20
2023-06-30T02:07:19.463Z,15.15
2023-06-30T02:09:49.016Z,15.11
2023-06-30T02:12:17.676Z,15.08
2023-06-30T02:14:45.626Z,15.09
2023-06-30T02:17:14.559Z,15.07
2023-06-30T02:19:43.143Z,15.07
2023-06-30T02:22:11.125Z,15.06
2023-06-30T02:24:39.066Z,15.07
2023-06-30T02:27:08.791Z,15.05
2023-06-30T02:29:36.837Z,15.05
2023-06-30T02:32:05.327Z,15.05
2023-06-30T02:34:33.120Z,15.02
2023-06-30T02:37:02.219Z,15.01
2023-06-30T02:39:30.142Z,14.99
2023-06-30T02:41:57.997Z,14.98
2023-06-30T02:44:25.884Z,14.97
2023-06-30T02:46:53.695Z,14.98
2023-06-30T02:49:21.650Z,14.96
2023-06-30T02:51:49.823Z,14.96
2023-06-30T02:54:17.767Z,14.99
2023-06-30T02:56:46.169Z,14.97
2023-06-30T02:59:14.703Z,14.94
2023-06-30T03:01:42.769Z,14.90
2023-06-30T03:04:11.432Z,14.88
2023-06-30T03:06:39.422Z,14.85
2023-06-30T03:09:09.377Z,14.82
2023-06-30T03:11:37.570Z,14.78
2023-06-30T03:14:05.518Z,14.75
2023-06-30T03:16:40.668Z,14.73
2023-06-30T03:19:08.716Z,14.73
2023-06-30T03:21:36.958Z,14.74
2023-06-30T03:24:05.021Z,14.74
2023-06-30T03:26:32.904Z,14.75
2023-06-30T03:29:02.938Z,14.77
2023-06-30T03:31:31.596Z,14.79
2023-06-30T03:34:00.195Z,14.77
2023-06-30T03:36:29.533Z,14.75
2023-06-30T03:38:57.578Z,14.76
2023-06-30T03:41:25.581Z,14.78
2023-06-30T03:43:53.491Z,14.80
2023-06-30T03:46:22.981Z,14.82
2023-06-30T03:48:50.887Z,14.84
2023-06-30T03:51:18.806Z,14.85
2023-06-30T03:53:49.100Z,14.88
2023-06-30T03:56:16.938Z,14.90
2023-06-30T03:58:45.400Z,14.95
2023-06-30T04:01:13.507Z,15.02
2023-06-30T04:03:42.038Z,15.08
2023-06-30T04:06:10.696Z,15.13
2023-06-30T04:08:38.554Z,15.19
2023-06-30T04:11:06.412Z,15.25
2023-06-30T04:13:34.250Z,15.33
2023-06-30T04:16:02.004Z,15.40
2023-06-30T04:18:30.040Z,15.46
2023-06-30T04:20:58.247Z,15.53
2023-06-30T04:23:26.285Z,15.60
2023-06-30T04:25:54.228Z,15.64
2023-06-30T04:28:22.100Z,15.68
2023-06-30T04:30:50.159Z,15.72
2023-06-30T04:33:18.030Z,15.77
2023-06-30T04:35:46.094Z,15.82
2023-06-30T04:38:14.405Z,15.87
2023-06-30T04:40:42.334Z,15.92
2023-06-30T04:43:13.701Z,15.98
2023-06-30T04:45:41.973Z,16.06
2023-06-30T04:48:10.006Z,16.11
2023-06-30T04:50:38.167Z,16.15
2023-06-30T04:53:06.036Z,16.22
2023-06-30T04:55:34.014Z,16.32
2023-06-30T04:58:01.869Z,16.39
2023-06-30T05:00:29.803Z,16.44
2023-06-30T05:02:57.797Z,16.51
2023-06-30T05:05:25.936Z,16.57
2023-06-30T05:07:53.918Z,16.62
2023-06-30T05:10:21.806Z,16.65
2023-06-30T05:12:50.017Z,16.70
2023-06-30T05:15:18.063Z,16.77
2023-06-30T05:17:46.003Z,16.85
2023-06-30T05:20:14.016Z,16.96
2023-06-30T05:22:41.958Z,17.06
2023-06-30T05:25:10.053Z,17.16
2023-06-30T05:27:38.064Z,17.27
2023-06-30T05:30:06.885Z,17.37
2023-06-30T05:32:35.013Z,17.44
2023-06-30T05:35:02.842Z,17.51
2023-06-30T05:37:30.812Z,17.57
2023-06-30T05:39:58.601Z,17.64
2023-06-30T05:42:26.414Z,17.72
2023-06-30T05:44:54.315Z,17.81
2023-06-30T05:47:22.173Z,17.89
2023-06-30T05:49:50.025Z,17.97
2023-06-30T05:52:17.979Z,18.05
2023-06-30T05:54:45.925Z,18.14
2023-06-30T05:57:13.910Z,18.24
2023-06-30T05:59:41.794Z,18.34
2023-06-30T06:02:09.817Z,18.42
2023-06-30T06:04:37.920Z,18.51
2023-06-30T06:07:06.827Z,18.61
2023-06-30T06:09:35.004Z,18.70
2023-06-30T06:12:03.761Z,18.79
2023-06-30T06:14:31.858Z,18.87
2023-06-30T06:17:00.050Z,18.96
2023-06-30T06:19:28.012Z,19.06
2023-06-30T06:21:55.894Z,19.18
2023-06-30T06:24:23.729Z,19.31
2023-06-30T06:26:51.843Z,19.42
2023-06-30T06:29:23.858Z,19.51
2023-06-30T06:31:54.295Z,19.60
2023-06-30T06:34:23.245Z,19.69
2023-06-30T06:36:51.224Z,19.76
2023-06-30T06:39:20.548Z,19.85
2023-06-30T06:41:48.544Z,19.93
2023-06-30T06:44:18.565Z,20.01
2023-06-30T06:46:46.791Z,20.10
2023-06-30T06:49:14.918Z,20.19
2023-06-30T06:51:42.893Z,20.27
2023-06-30T06:54:10.848Z,20.33
2023-06-30T06:56:38.738Z,20.38
2023-06-30T06:59:06.650Z,20.44
2023-06-30T07:01:34.995Z,20.50
2023-06-30T07:04:03.026Z,20.58
2023-06-30T07:06:30.863Z,20.68
2023-06-30T07:08:58.718Z,20.76
2023-06-30T07:11:26.819Z,20.83
2023-06-30T07:13:54.824Z,20.94
2023-06-30T07:16:23.026Z,21.04
2023-06-30T07:18:51.019Z,21.13
2023-06-30T07:21:19.371Z,21.18
2023-06-30T07:23:50.065Z,21.21
2023-06-30T07:26:17.989Z,21.27
2023-06-30T07:28:48.338Z,21.32
2023-06-30T07:31:16.357Z,21.38
2023-06-30T07:33:44.563Z,21.48
2023-06-30T07:36:12.695Z,21.54
2023-06-30T07:38:41.512Z,21.60
2023-06-30T07:41:09.492Z,21.66
2023-06-30T07:43:37.338Z,21.73
2023-06-30T07:46:05.919Z,21.80
2023-06-30T07:48:36.865Z,21.85
2023-06-30T07:51:09.050Z,21.92
2023-06-30T07:53:38.154Z,22.02
2023-06-30T07:56:06.285Z,22.09
2023-06-30T07:58:34.240Z,22.18
2023-06-30T08:01:02.221Z,22.23
2023-06-30T08:03:30.493Z,22.26
2023-06-30T08:06:00.253Z,22.30
2023-06-30T08:08:30.776Z,22.37
2023-06-30T08:10:59.233Z,22.44
2023-06-30T08:13:27.768Z,22.48
2023-06-30T08:15:55.953Z,22.51
2023-06-30T08:18:32.214Z,22.52
2023-06-30T08:21:04.389Z,22.55
2023-06-30T08:23:32.482Z,22.60
2023-06-30T08:26:00.569Z,22.64
2023-06-30T08:28:28.705Z,22.70
2023-06-30T08:30:56.883Z,22.75
2023-06-30T08:36:03.348Z,22.87
2023-06-30T08:38:31.990Z,22.90
2023-06-30T08:41:01.373Z,22.91
2023-06-30T08:43:31.576Z,22.93
2023-06-30T08:46:04.562Z,22.98
2023-06-30T08:48:33.201Z,23.03
2023-06-30T08:51:02.317Z,23.04
2023-06-30T08:53:32.303Z,23.04
2023-06-30T08:56:01.181Z,23.08
2023-06-30T08:58:29.914Z,23.18
2023-06-30T09:00:58.355Z,23.31
2023-06-30T09:03:27.968Z,23.40
2023-06-30T09:05:59.660Z,23.44
2023-06-30T09:09:04.272Z,23.43
2023-06-30T09:11:34.479Z,23.50
2023-06-30T09:14:05.025Z,23.58
2023-06-30T09:16:33.144Z,23.64
2023-06-30T09:19:01.183Z,23.69
2023-06-30T09:21:29.129Z,23.75
2023-06-30T09:23:57.855Z,23.84
2023-06-30T09:28:58.890Z,23.98
2023-06-30T09:31:31.839Z,24.04
2023-06-30T09:34:11.603Z,24.07
2023-06-30T09:36:49.071Z,24.11
2023-06-30T09:39:17.726Z,24.17
2023-06-30T09:41:47.424Z,24.24
2023-06-30T09:44:24.161Z,24.30
2023-06-30T09:46:54.436Z,24.35
2023-06-30T09:49:26.321Z,24.40
2023-06-30T09:51:57.535Z,24.37
2023-06-30T09:54:43.771Z,24.33
2023-06-30T09:57:13.122Z,24.39
2023-06-30T09:59:40.990Z,24.51
2023-06-30T10:02:11.476Z,24.68
2023-06-30T10:04:39.626Z,24.82
2023-06-30T10:07:08.618Z,24.94
2023-06-30T10:09:39.581Z,25.08
2023-06-30T10:12:10.856Z,25.27
2023-06-30T10:14:39.587Z,25.42
2023-06-30T10:17:09.090Z,25.52
2023-06-30T10:19:40.457Z,25.61
2023-06-30T10:22:09.037Z,25.75
2023-06-30T10:24:42.870Z,25.86
2023-06-30T10:27:14.200Z,25.97
2023-06-30T10:29:42.258Z,26.07
2023-06-30T10:32:10.082Z,26.15
2023-06-30T10:34:38.651Z,26.19
2023-06-30T10:37:08.755Z,26.11
2023-06-30T10:39:37.007Z,25.92
2023-06-30T10:42:09.234Z,25.86
2023-06-30T10:44:44.798Z,25.84
2023-06-30T10:47:12.975Z,25.92
2023-06-30T10:49:42.494Z,26.12
2023-06-30T10:52:25.938Z,26.29
2023-06-30T10:54:55.194Z,26.47
2023-06-30T10:57:29.785Z,26.63
2023-06-30T11:00:08.198Z,26.77
2023-06-30T11:02:36.363Z,26.90
2023-06-30T11:05:24.274Z,27.07
2023-06-30T11:08:08.602Z,27.13
2023-06-30T11:10:38.710Z,27.26
2023-06-30T11:13:10.498Z,27.37
2023-06-30T11:15:45.115Z,27.50
2023-06-30T11:18:16.647Z,27.61
2023-06-30T11:21:01.218Z,27.71
2023-06-30T11:23:34.336Z,27.73
2023-06-30T11:26:16.448Z,27.64
2023-06-30T11:28:49.524Z,27.66
2023-06-30T11:31:18.244Z,27.80
2023-06-30T11:33:47.417Z,27.94
2023-06-30T11:36:19.829Z,28.04
2023-06-30T11:38:52.248Z,28.18
2023-06-30T11:41:25.158Z,28.29
2023-06-30T11:43:56.724Z,28.33
2023-06-30T11:46:25.132Z,28.31
2023-06-30T11:48:53.809Z,28.29
2023-06-30T11:51:22.440Z,28.09
2023-06-30T11:53:50.682Z,27.88
2023-06-30T11:56:19.793Z,27.84
2023-06-30T11:58:51.849Z,27.81
2023-06-30T12:01:23.613Z,27.75
2023-06-30T12:04:23.043Z,27.81
2023-06-30T12:06:51.246Z,28.01
2023-06-30T12:09:19.151Z,28.22
2023-06-30T12:11:51.373Z,28.40
2023-06-30T12:16:54.705Z,28.62
2023-06-30T12:19:29.541Z,28.66
2023-06-30T12:22:01.281Z,28.64
2023-06-30T12:24:33.811Z,28.63
2023-06-30T12:27:09.028Z,28.56
2023-06-30T12:29:37.784Z,28.48
2023-06-30T12:32:16.262Z,28.48
2023-06-30T12:34:47.657Z,28.65
2023-06-30T12:37:21.019Z,28.81
2023-06-30T12:39:49.164Z,28.95
2023-06-30T12:42:19.388Z,29.04
2023-06-30T12:44:47.432Z,29.11
2023-06-30T12:47:15.422Z,29.17
2023-06-30T12:49:43.461Z,29.11
2023-06-30T12:52:11.551Z,29.03
2023-06-30T12:54:39.526Z,29.06
2023-06-30T12:57:07.864Z,29.13
2023-06-30T12:59:35.832Z,29.09
2023-06-30T13:02:03.825Z,29.07
2023-06-30T13:04:31.766Z,29.09
2023-06-30T13:07:00.664Z,29.13
2023-06-30T13:09:28.756Z,29.09
2023-06-30T13:11:57.045Z,28.96
2023-06-30T13:14:25.115Z,28.76
2023-06-30T13:16:53.075Z,28.59
2023-06-30T13:19:23.414Z,28.56
2023-06-30T13:21:52.166Z,28.58
2023-06-30T13:24:20.009Z,28.60
2023-06-30T13:26:48.390Z,28.60
2023-06-30T13:29:18.003Z,28.60
2023-06-30T13:31:46.567Z,28.58
2023-06-30T13:34:14.461Z,28.47
2023-06-30T13:36:42.424Z,28.36
2023-06-30T13:39:10.462Z,28.43
2023-06-30T13:41:39.443Z,28.55
2023-06-30T13:44:07.375Z,28.64
2023-06-30T13:46:35.224Z,28.72
2023-06-30T13:49:03.191Z,28.64
2023-06-30T13:51:33.549Z,28.48
2023-06-30T13:54:04.753Z,28.31
2023-06-30T13:56:35.071Z,28.22
2023-06-30T13:59:03.139Z,28.29
2023-06-30T14:01:31.722Z,28.45
2023-06-30T14:04:05.319Z,28.56
2023-06-30T14:06:39.759Z,28.63
2023-06-30T14:09:12.383Z,28.73
2023-06-30T14:11:43.614Z,28.80
2023-06-30T14:14:11.643Z,28.85
2023-06-30T14:16:40.057Z,28.90
2023-06-30T14:19:10.484Z,28.84
2023-06-30T14:21:39.055Z,28.70
2023-06-30T14:24:07.098Z,28.55
2023-06-30T14:26:37.298Z,28.43
2023-06-30T14:29:05.557Z,28.31
2023-06-30T14:31:33.574Z,28.16
2023-06-30T14:34:01.458Z,27.98
2023-06-30T14:36:29.443Z,27.81
2023-06-30T14:38:57.301Z,27.62
2023-06-30T14:41:25.275Z,27.48
2023-06-30T14:43:53.294Z,27.39
2023-06-30T14:46:21.409Z,27.27
2023-06-30T14:48:49.865Z,27.15
2023-06-30T14:51:17.744Z,27.08
2023-06-30T14:53:45.525Z,27.01
2023-06-30T14:56:13.630Z,26.96
2023-06-30T14:58:43.009Z,26.98
2023-06-30T15:01:11.010Z,27.04
2023-06-30T15:03:39.045Z,27.24
2023-06-30T15:06:07.126Z,27.48
2023-06-30T15:08:35.868Z,27.64
2023-06-30T15:11:03.726Z,27.74
2023-06-30T15:13:31.997Z,27.84
2023-06-30T15:15:59.940Z,27.81
2023-06-30T15:18:28.078Z,27.71
2023-06-30T15:20:56.172Z,27.58
2023-06-30T15:23:24.008Z,27.46
2023-06-30T15:25:52.400Z,27.36
2023-06-30T15:28:20.312Z,27.25
2023-06-30T15:30:48.785Z,27.27
2023-06-30T15:33:17.199Z,27.34
2023-06-30T15:35:45.597Z,27.43
2023-06-30T15:38:13.860Z,27.59
2023-06-30T15:40:42.801Z,27.76
2023-06-30T15:43:10.648Z,27.97
2023-06-30T15:45:38.624Z,28.15
2023-06-30T15:48:14.147Z,28.29
2023-06-30T15:50:43.200Z,28.39
2023-06-30T15:53:11.874Z,28.46
2023-06-30T15:55:39.862Z,28.48
2023-06-30T15:58:08.972Z,28.51
2023-06-30T16:00:36.835Z,28.53
2023-06-30T16:03:07.513Z,28.52
2023-06-30T16:05:39.394Z,28.54
2023-06-30T16:08:07.654Z,28.55
2023-06-30T16:10:37.787Z,28.51
2023-06-30T16:13:09.420Z,28.41
2023-06-30T16:15:38.971Z,28.38
2023-06-30T16:18:06.947Z,28.41
2023-06-30T16:20:36.095Z,28.50
2023-06-30T16:23:04.073Z,28.52
2023-06-30T16:25:32.036Z,28.43
2023-06-30T16:28:00.059Z,28.29
2023-06-30T16:30:33.152Z,28.19
2023-06-30T16:33:01.650Z,28.08
2023-06-30T16:35:29.756Z,27.97
2023-06-30T16:38:00.743Z,27.89
2023-06-30T16:40:28.676Z,27.78
2023-06-30T16:42:56.630Z,27.68
2023-06-30T16:45:24.686Z,27.58
2023-06-30T16:47:52.638Z,27.49
2023-06-30T16:50:21.129Z,27.41
2023-06-30T16:52:50.075Z,27.33
2023-06-30T16:55:18.008Z,27.24
2023-06-30T16:57:46.120Z,27.18
2023-06-30T17:00:14.363Z,27.11
2023-06-30T17:02:42.644Z,27.04
2023-06-30T17:05:11.486Z,26.97
2023-06-30T17:07:39.426Z,26.89
2023-06-30T17:10:07.753Z,26.81
2023-06-30T17:12:35.712Z,26.77
2023-06-30T17:15:07.367Z,26.71
2023-06-30T17:17:35.666Z,26.66
2023-06-30T17:20:05.221Z,26.59
2023-06-30T17:22:33.440Z,26.54
2023-06-30T17:25:05.190Z,26.50
2023-06-30T17:27:38.455Z,26.43
2023-06-30T17:30:13.444Z,26.38
2023-06-30T17:32:41.489Z,26.32
2023-06-30T17:35:09.515Z,26.26
2023-06-30T17:37:37.533Z,26.22
2023-06-30T17:40:06.303Z,26.15
2023-06-30T17:42:34.236Z,26.08
2023-06-30T17:45:03.232Z,26.03
2023-06-30T17:47:31.313Z,25.99
2023-06-30T17:50:00.682Z,25.94
2023-06-30T17:52:28.771Z,25.90
2023-06-30T17:54:56.766Z,25.83
2023-06-30T17:57:24.588Z,25.74
2023-06-30T17:59:52.722Z,25.68
2023-06-30T18:02:20.707Z,25.63
2023-06-30T18:04:50.254Z,25.56
2023-06-30T18:07:19.572Z,25.51
2023-06-30T18:09:47.603Z,25.46
2023-06-30T18:12:15.820Z,25.40
2023-06-30T18:14:43.954Z,25.34
2023-06-30T18:17:11.954Z,25.27
2023-06-30T18:19:41.528Z,25.19
2023-06-30T18:22:09.838Z,25.11
2023-06-30T18:24:38.345Z,25.04
2023-06-30T18:27:06.638Z,24.97
2023-06-30T18:29:34.604Z,24.91
2023-06-30T18:32:02.898Z,24.84
2023-06-30T18:34:31.242Z,24.75
2023-06-30T18:37:01.622Z,24.66
2023-06-30T18:39:29.500Z,24.57
2023-06-30T18:41:57.425Z,24.48
2023-06-30T18:44:26.236Z,24.41
2023-06-30T18:46:54.281Z,24.32
2023-06-30T18:49:24.888Z,24.25
2023-06-30T18:51:55.000Z,24.18
2023-06-30T18:54:23.664Z,24.08
2023-06-30T18:56:51.962Z,24.02
2023-06-30T18:59:20.136Z,23.96
2023-06-30T19:01:48.255Z,23.87
2023-06-30T19:04:16.870Z,23.79
2023-06-30T19:06:45.233Z,23.73
2023-06-30T19:09:13.930Z,23.68
2023-06-30T19:11:41.890Z,23.62
2023-06-30T19:14:09.968Z,23.56
2023-06-30T19:16:37.910Z,23.48
2023-06-30T19:19:05.695Z,23.42
2023-06-30T19:21:33.575Z,23.35
2023-06-30T19:24:01.937Z,23.29
2023-06-30T19:26:30.066Z,23.23
2023-06-30T19:28:58.416Z,23.18
2023-06-30T19:31:27.161Z,23.13
2023-06-30T19:33:55.221Z,23.10
2023-06-30T19:36:24.798Z,23.09
2023-06-30T19:38:52.827Z,23.03
2023-06-30T19:41:21.006Z,22.99
2023-06-30T19:43:49.175Z,22.94
2023-06-30T19:46:17.590Z,22.89
2023-06-30T19:48:45.766Z,22.84
2023-06-30T19:51:13.865Z,22.80
2023-06-30T19:53:42.258Z,22.76
2023-06-30T19:56:14.501Z,22.72
2023-06-30T19:58:43.899Z,22.68
2023-06-30T20:01:11.891Z,22.64
2023-06-30T20:03:40.387Z,22.63
2023-06-30T20:06:08.783Z,22.61
2023-06-30T20:08:36.845Z,22.56
2023-06-30T20:11:04.854Z,22.52
2023-06-30T20:13:32.813Z,22.48
2023-06-30T20:16:00.763Z,22.41
2023-06-30T20:18:30.423Z,22.32
2023-06-30T20:20:58.761Z,22.28
2023-06-30T20:23:26.728Z,22.22
2023-06-30T20:25:54.940Z,22.16
2023-06-30T20:28:22.935Z,22.09
2023-06-30T20:30:51.148Z,22.04
2023-06-30T20:33:19.643Z,21.96
2023-06-30T20:35:47.847Z,21.90
2023-06-30T20:38:18.989Z,21.83
2023-06-30T20:40:47.385Z,21.77
2023-06-30T20:43:15.702Z,21.72
2023-06-30T20:45:43.772Z,21.69
2023-06-30T20:48:11.798Z,21.63
2023-06-30T20:50:39.782Z,21.58
2023-06-30T20:53:08.227Z,21.55
2023-06-30T20:55:36.182Z,21.51
2023-06-30T20:58:04.137Z,21.45
2023-06-30T21:00:32.212Z,21.39
2023-06-30T21:03:00.269Z,21.33
2023-06-30T21:05:28.532Z,21.27
2023-06-30T21:07:56.777Z,21.22
2023-06-30T21:10:24.611Z,21.18
2023-06-30T21:12:52.371Z,21.14
2023-06-30T21:15:20.296Z,21.10
2023-06-30T21:17:48.218Z,21.04
2023-06-30T21:20:16.901Z,21.00
2023-06-30T21:22:44.731Z,20.95
2023-06-30T21:25:12.790Z,20.90
2023-06-30T21:27:40.857Z,20.86
2023-06-30T21:30:11.880Z,20.84
2023-06-30T21:32:39.871Z,20.78
2023-06-30T21:35:08.148Z,20.72
2023-06-30T21:37:36.065Z,20.68
2023-06-30T21:40:04.328Z,20.65
2023-06-30T21:42:32.117Z,20.60
2023-06-30T21:45:00.034Z,20.56
2023-06-30T21:47:28.199Z,20.50
2023-06-30T21:49:56.313Z,20.46
2023-06-30T21:52:24.270Z,20.42
2023-06-30T21:54:52.139Z,20.39
2023-06-30T21:57:20.098Z,20.35
2023-06-30T21:59:48.036Z,20.33
2023-06-30T22:02:16.212Z,20.31
2023-06-30T22:04:44.317Z,20.27
2023-06-30T22:07:12.784Z,20.22
2023-06-30T22:09:40.601Z,20.17
2023-06-30T22:12:08.753Z,20.14
2023-06-30T22:14:37.108Z,20.11
2023-06-30T22:17:05.769Z,20.07
2023-06-30T22:19:35.138Z,20.03
2023-06-30T22:22:05.686Z,20.01
2023-06-30T22:24:33.836Z,19.97
2023-06-30T22:27:01.743Z,19.95
2023-06-30T22:29:29.817Z,19.94
2023-06-30T22:31:57.687Z,19.90
2023-06-30T22:34:25.878Z,19.88
2023-06-30T22:36:53.751Z,19.86
2023-06-30T22:39:21.629Z,19.82
2023-06-30T22:41:49.524Z,19.80
2023-06-30T22:44:17.476Z,19.79
2023-06-30T22:46:45.332Z,19.76
2023-06-30T22:49:13.383Z,19.71
2023-06-30T22:51:41.421Z,19.69
2023-06-30T22:54:09.196Z,19.66
2023-06-30T22:56:37.106Z,19.61
2023-06-30T22:59:05.036Z,19.57
2023-06-30T23:01:33.063Z,19.53
2023-06-30T23:04:01.341Z,19.49
2023-06-30T23:06:29.635Z,19.45
2023-06-30T23:08:57.847Z,19.40
2023-06-30T23:11:26.024Z,19.36
2023-06-30T23:13:53.967Z,19.34
2023-06-30T23:16:22.936Z,19.32
2023-06-30T23:18:50.885Z,19.31
2023-06-30T23:21:19.493Z,19.30
2023-06-30T23:23:47.526Z,19.30
2023-06-30T23:26:16.175Z,19.29
2023-06-30T23:28:50.478Z,19.26
2023-06-30T23:31:22.789Z,19.22
2023-06-30T23:33:53.308Z,19.19
2023-06-30T23:36:21.357Z,19.20
2023-06-30T23:38:51.225Z,19.17
2023-06-30T23:41:19.095Z,19.15
2023-06-30T23:43:48.103Z,19.15
2023-06-30T23:46:20.633Z,19.11
2023-06-30T23:48:51.727Z,19.08
2023-06-30T23:51:19.667Z,19.05
2023-06-30T23:53:47.676Z,19.04
2023-06-30T23:56:15.581Z,19.01
2023-06-30T23:58:43.425Z,18.95
